sensor_id;sensor_type;location;lat;lon;timestamp;pressure;altitude;pressure_sealevel;temperature;humidity
15382;BME280;7789;51.364;12.358;2023-03-04T00:04:08;100867.72;;;3.90;96.23
15382;BME280;7789;51.364;12.358;2023-03-04T00:09:11;100873.03;;;3.87;97.14
15382;BME280;7789;51.364;12.358;2023-03-04T00:14:14;100871.22;;;3.89;97.20
15382;BME280;7789;51.364;12.358;2023-03-04T00:19:19;100873.75;;;3.90;97.14
15382;BME280;7789;51.364;12.358;2023-03-04T00:24:32;100880.53;;;3.93;97.35
15382;BME280;7789;51.364;12.358;2023-03-04T00:29:35;100862.53;;;3.90;97.69
15382;BME280;7789;51.364;12.358;2023-03-04T00:34:40;100860.97;;;3.87;97.85
15382;BME280;7789;51.364;12.358;2023-03-04T00:40:13;100865.94;;;3.73;98.72
15382;BME280;7789;51.364;12.358;2023-03-04T00:45:23;100865.31;;;3.68;99.27
15382;BME280;7789;51.364;12.358;2023-03-04T00:50:27;100865.06;;;3.73;99.68
15382;BME280;7789;51.364;12.358;2023-03-04T00:55:31;100857.47;;;3.70;99.69
15382;BME280;7789;51.364;12.358;2023-03-04T01:00:34;100859.44;;;3.65;99.76
15382;BME280;7789;51.364;12.358;2023-03-04T01:05:39;100859.13;;;3.71;99.49
15382;BME280;7789;51.364;12.358;2023-03-04T01:10:42;100854.66;;;3.74;99.20
15382;BME280;7789;51.364;12.358;2023-03-04T01:15:45;100844.91;;;3.62;99.49
15382;BME280;7789;51.364;12.358;2023-03-04T01:20:50;100835.97;;;3.69;99.95
15382;BME280;7789;51.364;12.358;2023-03-04T01:25:53;100819.44;;;3.72;99.04
15382;BME280;7789;51.364;12.358;2023-03-04T01:30:57;100808.09;;;3.76;99.55
15382;BME280;7789;51.364;12.358;2023-03-04T01:36:01;100808.16;;;3.74;99.03
15382;BME280;7789;51.364;12.358;2023-03-04T01:41:05;100801.66;;;3.66;99.12
15382;BME280;7789;51.364;12.358;2023-03-04T01:46:09;100797.28;;;3.50;99.50
15382;BME280;7789;51.364;12.358;2023-03-04T01:51:19;100787.56;;;3.55;99.54
15382;BME280;7789;51.364;12.358;2023-03-04T01:56:24;100773.66;;;3.57;99.27
15382;BME280;7789;51.364;12.358;2023-03-04T02:01:30;100768.41;;;3.58;99.23
15382;BME280;7789;51.364;12.358;2023-03-04T02:06:36;100765.00;;;3.58;99.03
15382;BME280;7789;51.364;12.358;2023-03-04T02:11:41;100763.97;;;3.62;99.64
15382;BME280;7789;51.364;12.358;2023-03-04T02:16:44;100772.31;;;3.67;99.10
15382;BME280;7789;51.364;12.358;2023-03-04T02:21:49;100773.94;;;3.69;98.95
15382;BME280;7789;51.364;12.358;2023-03-04T02:26:55;100756.50;;;3.73;99.31
15382;BME280;7789;51.364;12.358;2023-03-04T02:32:01;100751.34;;;3.73;99.29
15382;BME280;7789;51.364;12.358;2023-03-04T02:37:05;100751.13;;;3.77;98.80
15382;BME280;7789;51.364;12.358;2023-03-04T02:42:11;100746.56;;;3.82;99.08
15382;BME280;7789;51.364;12.358;2023-03-04T02:47:16;100740.34;;;3.86;98.96
15382;BME280;7789;51.364;12.358;2023-03-04T02:52:22;100732.28;;;3.92;99.36
15382;BME280;7789;51.364;12.358;2023-03-04T02:57:26;100720.13;;;3.94;98.23
15382;BME280;7789;51.364;12.358;2023-03-04T03:02:30;100726.69;;;4.01;98.77
15382;BME280;7789;51.364;12.358;2023-03-04T03:07:35;100722.16;;;4.05;99.00
15382;BME280;7789;51.364;12.358;2023-03-04T03:12:40;100715.88;;;4.10;98.85
15382;BME280;7789;51.364;12.358;2023-03-04T03:17:43;100710.69;;;4.10;98.74
15382;BME280;7789;51.364;12.358;2023-03-04T03:22:47;100717.53;;;4.11;98.13
15382;BME280;7789;51.364;12.358;2023-03-04T03:27:51;100718.91;;;4.18;98.59
15382;BME280;7789;51.364;12.358;2023-03-04T03:32:55;100723.94;;;4.21;98.20
15382;BME280;7789;51.364;12.358;2023-03-04T03:37:59;100713.38;;;4.26;98.58
15382;BME280;7789;51.364;12.358;2023-03-04T03:43:04;100702.31;;;4.22;98.13
15382;BME280;7789;51.364;12.358;2023-03-04T03:48:07;100705.50;;;4.27;97.87
15382;BME280;7789;51.364;12.358;2023-03-04T03:53:10;100700.09;;;4.32;97.94
15382;BME280;7789;51.364;12.358;2023-03-04T03:58:15;100702.38;;;4.38;97.98
15382;BME280;7789;51.364;12.358;2023-03-04T04:03:18;100694.69;;;4.36;98.18
15382;BME280;7789;51.364;12.358;2023-03-04T04:08:21;100697.03;;;4.41;97.93
15382;BME280;7789;51.364;12.358;2023-03-04T04:13:26;100686.53;;;4.44;97.62
15382;BME280;7789;51.364;12.358;2023-03-04T04:18:29;100685.47;;;4.48;97.48
15382;BME280;7789;51.364;12.358;2023-03-04T04:23:33;100685.47;;;4.48;96.94
15382;BME280;7789;51.364;12.358;2023-03-04T04:28:37;100683.56;;;4.51;97.25
15382;BME280;7789;51.364;12.358;2023-03-04T04:33:41;100692.09;;;4.53;96.87
15382;BME280;7789;51.364;12.358;2023-03-04T04:38:44;100689.41;;;4.55;96.79
15382;BME280;7789;51.364;12.358;2023-03-04T04:43:49;100683.13;;;4.59;96.45
15382;BME280;7789;51.364;12.358;2023-03-04T04:48:53;100676.22;;;4.59;96.56
15382;BME280;7789;51.364;12.358;2023-03-04T04:53:57;100674.56;;;4.58;96.49
15382;BME280;7789;51.364;12.358;2023-03-04T04:59:03;100667.47;;;4.62;96.35
15382;BME280;7789;51.364;12.358;2023-03-04T05:04:08;100676.97;;;4.61;95.96
15382;BME280;7789;51.364;12.358;2023-03-04T05:09:12;100665.53;;;4.65;95.99
15382;BME280;7789;51.364;12.358;2023-03-04T05:14:17;100666.44;;;4.64;95.61
15382;BME280;7789;51.364;12.358;2023-03-04T05:19:20;100658.69;;;4.64;95.50
15382;BME280;7789;51.364;12.358;2023-03-04T05:24:23;100661.88;;;4.69;96.14
15382;BME280;7789;51.364;12.358;2023-03-04T05:29:28;100656.53;;;4.72;95.56
15382;BME280;7789;51.364;12.358;2023-03-04T05:34:31;100657.13;;;4.77;95.25
15382;BME280;7789;51.364;12.358;2023-03-04T05:39:34;100652.63;;;4.81;95.50
15382;BME280;7789;51.364;12.358;2023-03-04T05:44:39;100648.38;;;4.80;94.78
15382;BME280;7789;51.364;12.358;2023-03-04T05:49:42;100640.44;;;4.83;94.69
15382;BME280;7789;51.364;12.358;2023-03-04T05:54:46;100642.03;;;4.85;94.84
15382;BME280;7789;51.364;12.358;2023-03-04T05:59:50;100636.75;;;4.87;94.51
15382;BME280;7789;51.364;12.358;2023-03-04T06:04:54;100642.91;;;4.84;94.43
15382;BME280;7789;51.364;12.358;2023-03-04T06:09:57;100640.59;;;4.80;93.81
15382;BME280;7789;51.364;12.358;2023-03-04T06:15:02;100645.44;;;4.86;94.72
15382;BME280;7789;51.364;12.358;2023-03-04T06:20:07;100651.53;;;4.85;94.28
15382;BME280;7789;51.364;12.358;2023-03-04T06:25:11;100649.34;;;4.93;94.00
15382;BME280;7789;51.364;12.358;2023-03-04T06:30:18;100659.72;;;4.93;94.18
15382;BME280;7789;51.364;12.358;2023-03-04T06:35:21;100649.09;;;4.97;94.42
15382;BME280;7789;51.364;12.358;2023-03-04T06:40:26;100661.75;;;5.03;93.94
15382;BME280;7789;51.364;12.358;2023-03-04T06:45:30;100654.38;;;5.11;94.35
15382;BME280;7789;51.364;12.358;2023-03-04T06:50:33;100657.63;;;5.15;94.04
15382;BME280;7789;51.364;12.358;2023-03-04T06:55:36;100666.84;;;5.20;94.02
15382;BME280;7789;51.364;12.358;2023-03-04T07:00:42;100657.13;;;5.24;93.85
15382;BME280;7789;51.364;12.358;2023-03-04T07:05:46;100656.00;;;5.28;94.11
15382;BME280;7789;51.364;12.358;2023-03-04T07:10:49;100653.28;;;5.31;94.62
15382;BME280;7789;51.364;12.358;2023-03-04T07:15:54;100654.53;;;5.39;94.13
15382;BME280;7789;51.364;12.358;2023-03-04T07:20:57;100659.44;;;5.43;94.71
15382;BME280;7789;51.364;12.358;2023-03-04T07:26:00;100657.59;;;5.45;94.91
15382;BME280;7789;51.364;12.358;2023-03-04T07:31:10;100662.34;;;5.53;94.56
15382;BME280;7789;51.364;12.358;2023-03-04T07:36:17;100657.63;;;5.59;94.93
15382;BME280;7789;51.364;12.358;2023-03-04T07:41:23;100665.28;;;5.62;95.07
15382;BME280;7789;51.364;12.358;2023-03-04T07:46:29;100664.38;;;5.77;95.12
15382;BME280;7789;51.364;12.358;2023-03-04T07:51:33;100659.19;;;5.77;94.91
15382;BME280;7789;51.364;12.358;2023-03-04T07:56:38;100660.28;;;5.89;94.48
15382;BME280;7789;51.364;12.358;2023-03-04T08:01:42;100647.50;;;6.00;94.14
15382;BME280;7789;51.364;12.358;2023-03-04T08:06:46;100655.03;;;6.04;94.59
15382;BME280;7789;51.364;12.358;2023-03-04T08:11:51;100645.69;;;6.16;95.03
15382;BME280;7789;51.364;12.358;2023-03-04T08:16:57;100646.34;;;6.19;94.34
15382;BME280;7789;51.364;12.358;2023-03-04T08:22:01;100640.69;;;6.27;94.29
15382;BME280;7789;51.364;12.358;2023-03-04T08:27:04;100640.44;;;6.31;94.29
15382;BME280;7789;51.364;12.358;2023-03-04T08:32:09;100630.47;;;6.38;95.17
15382;BME280;7789;51.364;12.358;2023-03-04T08:37:13;100622.81;;;6.50;94.81
15382;BME280;7789;51.364;12.358;2023-03-04T08:42:19;100624.28;;;6.54;95.00
15382;BME280;7789;51.364;12.358;2023-03-04T08:47:24;100620.94;;;6.66;94.94
15382;BME280;7789;51.364;12.358;2023-03-04T08:52:28;100626.09;;;6.80;94.69
15382;BME280;7789;51.364;12.358;2023-03-04T08:57:31;100628.50;;;6.83;93.37
15382;BME280;7789;51.364;12.358;2023-03-04T09:02:36;100617.53;;;6.92;93.39
15382;BME280;7789;51.364;12.358;2023-03-04T09:07:39;100613.63;;;6.99;93.14
15382;BME280;7789;51.364;12.358;2023-03-04T09:12:43;100618.34;;;7.07;93.11
15382;BME280;7789;51.364;12.358;2023-03-04T09:17:48;100603.63;;;7.20;92.42
15382;BME280;7789;51.364;12.358;2023-03-04T09:22:52;100611.22;;;7.22;92.51
15382;BME280;7789;51.364;12.358;2023-03-04T09:27:55;100605.22;;;7.34;92.87
15382;BME280;7789;51.364;12.358;2023-03-04T09:33:00;100612.25;;;7.46;92.68
15382;BME280;7789;51.364;12.358;2023-03-04T09:38:04;100608.09;;;7.56;92.40
15382;BME280;7789;51.364;12.358;2023-03-04T09:43:16;100613.84;;;7.61;92.59
15382;BME280;7789;51.364;12.358;2023-03-04T09:48:24;100610.94;;;7.66;91.07
15382;BME280;7789;51.364;12.358;2023-03-04T09:53:34;100595.13;;;7.69;91.12
15382;BME280;7789;51.364;12.358;2023-03-04T09:58:49;100599.28;;;7.71;89.67
15382;BME280;7789;51.364;12.358;2023-03-04T10:04:02;100585.66;;;7.80;89.41
15382;BME280;7789;51.364;12.358;2023-03-04T10:09:10;100588.50;;;7.90;88.42
15382;BME280;7789;51.364;12.358;2023-03-04T10:14:29;100581.31;;;8.06;88.54
15382;BME280;7789;51.364;12.358;2023-03-04T10:19:51;100578.72;;;8.18;88.35
15382;BME280;7789;51.364;12.358;2023-03-04T10:24:58;100576.41;;;8.14;88.09
15382;BME280;7789;51.364;12.358;2023-03-04T10:30:12;100571.81;;;8.17;87.16
15382;BME280;7789;51.364;12.358;2023-03-04T10:35:26;100576.75;;;8.22;86.81
15382;BME280;7789;51.364;12.358;2023-03-04T10:40:38;100566.03;;;8.26;87.50
15382;BME280;7789;51.364;12.358;2023-03-04T10:45:41;100564.47;;;8.24;87.96
15382;BME280;7789;51.364;12.358;2023-03-04T10:50:47;100565.09;;;8.27;88.40
15382;BME280;7789;51.364;12.358;2023-03-04T10:55:51;100560.97;;;8.48;87.48
15382;BME280;7789;51.364;12.358;2023-03-04T11:01:00;100562.28;;;8.66;86.39
15382;BME280;7789;51.364;12.358;2023-03-04T11:06:11;100557.16;;;8.77;86.23
15382;BME280;7789;51.364;12.358;2023-03-04T11:11:26;100552.31;;;8.84;85.83
15382;BME280;7789;51.364;12.358;2023-03-04T11:16:52;100556.31;;;9.00;85.50
15382;BME280;7789;51.364;12.358;2023-03-04T11:21:59;100541.84;;;8.96;85.14
15382;BME280;7789;51.364;12.358;2023-03-04T11:27:12;100565.75;;;8.90;84.88
15382;BME280;7789;51.364;12.358;2023-03-04T11:32:19;100558.47;;;8.83;84.60
15382;BME280;7789;51.364;12.358;2023-03-04T11:37:29;100556.25;;;8.89;84.85
15382;BME280;7789;51.364;12.358;2023-03-04T11:42:40;100557.91;;;8.90;83.91
15382;BME280;7789;51.364;12.358;2023-03-04T11:47:52;100547.06;;;8.96;84.06
15382;BME280;7789;51.364;12.358;2023-03-04T11:53:24;100535.72;;;9.08;83.05
15382;BME280;7789;51.364;12.358;2023-03-04T11:58:50;100530.66;;;9.07;82.37
15382;BME280;7789;51.364;12.358;2023-03-04T12:04:11;100517.47;;;9.08;82.75
15382;BME280;7789;51.364;12.358;2023-03-04T12:09:27;100514.06;;;9.08;82.78
15382;BME280;7789;51.364;12.358;2023-03-04T12:14:41;100515.59;;;9.10;82.04
15382;BME280;7789;51.364;12.358;2023-03-04T12:25:43;100505.69;;;9.26;81.29
15382;BME280;7789;51.364;12.358;2023-03-04T12:36:34;100493.59;;;9.25;81.67
15382;BME280;7789;51.364;12.358;2023-03-04T12:41:48;100499.91;;;9.33;82.13
15382;BME280;7789;51.364;12.358;2023-03-04T12:47:18;100482.72;;;9.31;82.16
15382;BME280;7789;51.364;12.358;2023-03-04T12:52:34;100473.91;;;9.21;82.24
15382;BME280;7789;51.364;12.358;2023-03-04T12:57:44;100469.88;;;9.17;82.04
15382;BME280;7789;51.364;12.358;2023-03-04T13:02:58;100473.94;;;9.43;81.76
15382;BME280;7789;51.364;12.358;2023-03-04T13:08:17;100479.19;;;9.54;81.88
15382;BME280;7789;51.364;12.358;2023-03-04T13:13:39;100467.34;;;9.50;82.55
15382;BME280;7789;51.364;12.358;2023-03-04T13:18:43;100471.38;;;9.54;82.73
15382;BME280;7789;51.364;12.358;2023-03-04T13:23:47;100470.56;;;9.75;83.23
15382;BME280;7789;51.364;12.358;2023-03-04T13:28:54;100454.06;;;9.75;82.22
15382;BME280;7789;51.364;12.358;2023-03-04T13:34:41;100450.28;;;9.79;81.05
15382;BME280;7789;51.364;12.358;2023-03-04T13:40:28;100462.97;;;9.83;80.56
15382;BME280;7789;51.364;12.358;2023-03-04T13:45:35;100453.22;;;9.85;79.78
15382;BME280;7789;51.364;12.358;2023-03-04T13:50:44;100464.88;;;9.92;79.21
15382;BME280;7789;51.364;12.358;2023-03-04T14:01:53;100453.72;;;9.90;77.79
15382;BME280;7789;51.364;12.358;2023-03-04T14:06:59;100453.59;;;9.92;78.93
15382;BME280;7789;51.364;12.358;2023-03-04T14:12:12;100448.63;;;9.89;78.10
15382;BME280;7789;51.364;12.358;2023-03-04T14:17:22;100455.75;;;9.87;78.93
15382;BME280;7789;51.364;12.358;2023-03-04T14:22:28;100440.31;;;9.84;78.52
15382;BME280;7789;51.364;12.358;2023-03-04T14:27:34;100444.13;;;9.80;77.62
15382;BME280;7789;51.364;12.358;2023-03-04T14:32:41;100437.94;;;9.70;77.02
15382;BME280;7789;51.364;12.358;2023-03-04T14:37:50;100434.16;;;9.63;75.13
15382;BME280;7789;51.364;12.358;2023-03-04T14:42:59;100445.19;;;9.55;74.92
15382;BME280;7789;51.364;12.358;2023-03-04T14:48:07;100438.38;;;9.42;75.05
15382;BME280;7789;51.364;12.358;2023-03-04T14:53:14;100435.78;;;9.31;77.34
15382;BME280;7789;51.364;12.358;2023-03-04T14:58:22;100437.03;;;9.14;78.53
15382;BME280;7789;51.364;12.358;2023-03-04T15:03:28;100429.38;;;9.01;79.83
15382;BME280;7789;51.364;12.358;2023-03-04T15:08:35;100409.00;;;8.95;79.20
15382;BME280;7789;51.364;12.358;2023-03-04T15:13:41;100424.63;;;8.95;78.77
15382;BME280;7789;51.364;12.358;2023-03-04T15:18:58;100414.31;;;8.93;79.42
15382;BME280;7789;51.364;12.358;2023-03-04T15:24:04;100416.44;;;8.88;79.02
15382;BME280;7789;51.364;12.358;2023-03-04T15:29:14;100412.16;;;8.87;79.03
15382;BME280;7789;51.364;12.358;2023-03-04T15:34:20;100418.91;;;8.79;79.15
15382;BME280;7789;51.364;12.358;2023-03-04T15:39:23;100428.00;;;8.73;78.95
15382;BME280;7789;51.364;12.358;2023-03-04T15:44:37;100419.06;;;8.65;78.86
15382;BME280;7789;51.364;12.358;2023-03-04T15:49:43;100426.41;;;8.60;79.07
15382;BME280;7789;51.364;12.358;2023-03-04T15:54:48;100427.44;;;8.57;79.76
15382;BME280;7789;51.364;12.358;2023-03-04T15:59:52;100424.56;;;8.49;80.07
15382;BME280;7789;51.364;12.358;2023-03-04T16:04:57;100422.06;;;8.48;80.55
15382;BME280;7789;51.364;12.358;2023-03-04T16:10:07;100435.31;;;8.45;81.39
15382;BME280;7789;51.364;12.358;2023-03-04T16:15:14;100438.66;;;8.47;81.78
15382;BME280;7789;51.364;12.358;2023-03-04T16:20:21;100439.75;;;8.32;82.54
15382;BME280;7789;51.364;12.358;2023-03-04T16:25:28;100439.69;;;8.21;83.88
15382;BME280;7789;51.364;12.358;2023-03-04T16:30:32;100444.16;;;8.06;84.87
15382;BME280;7789;51.364;12.358;2023-03-04T16:35:37;100438.03;;;7.95;84.90
15382;BME280;7789;51.364;12.358;2023-03-04T16:40:41;100440.78;;;7.93;85.22
15382;BME280;7789;51.364;12.358;2023-03-04T16:45:44;100435.38;;;7.84;85.57
15382;BME280;7789;51.364;12.358;2023-03-04T16:50:49;100440.78;;;7.81;85.44
15382;BME280;7789;51.364;12.358;2023-03-04T16:55:53;100446.41;;;7.75;84.87
15382;BME280;7789;51.364;12.358;2023-03-04T17:00:56;100445.91;;;7.70;84.88
15382;BME280;7789;51.364;12.358;2023-03-04T17:06:01;100450.69;;;7.63;84.40
15382;BME280;7789;51.364;12.358;2023-03-04T17:11:05;100467.44;;;7.59;84.06
15382;BME280;7789;51.364;12.358;2023-03-04T17:16:11;100465.03;;;7.56;84.73
15382;BME280;7789;51.364;12.358;2023-03-04T17:21:19;100466.19;;;7.52;84.76
15382;BME280;7789;51.364;12.358;2023-03-04T17:26:23;100464.72;;;7.48;85.35
15382;BME280;7789;51.364;12.358;2023-03-04T17:31:27;100472.97;;;7.42;84.52
15382;BME280;7789;51.364;12.358;2023-03-04T17:36:31;100473.06;;;7.41;84.78
15382;BME280;7789;51.364;12.358;2023-03-04T17:41:35;100473.06;;;7.41;85.24
15382;BME280;7789;51.364;12.358;2023-03-04T17:46:38;100474.06;;;7.38;85.12
15382;BME280;7789;51.364;12.358;2023-03-04T17:51:43;100478.75;;;7.33;85.78
15382;BME280;7789;51.364;12.358;2023-03-04T17:56:47;100475.00;;;7.25;86.41
15382;BME280;7789;51.364;12.358;2023-03-04T18:01:50;100475.81;;;7.13;86.64
15382;BME280;7789;51.364;12.358;2023-03-04T18:06:56;100481.94;;;7.12;87.91
15382;BME280;7789;51.364;12.358;2023-03-04T18:12:25;100483.19;;;7.07;88.47
15382;BME280;7789;51.364;12.358;2023-03-04T18:17:28;100480.34;;;6.97;88.81
15382;BME280;7789;51.364;12.358;2023-03-04T18:22:33;100464.66;;;6.99;89.29
15382;BME280;7789;51.364;12.358;2023-03-04T18:27:36;100468.28;;;6.96;89.76
15382;BME280;7789;51.364;12.358;2023-03-04T18:32:41;100464.16;;;6.94;88.94
15382;BME280;7789;51.364;12.358;2023-03-04T18:37:54;100457.91;;;6.96;88.68
15382;BME280;7789;51.364;12.358;2023-03-04T18:42:57;100455.63;;;6.92;88.43
15382;BME280;7789;51.364;12.358;2023-03-04T18:48:01;100451.34;;;6.91;88.26
15382;BME280;7789;51.364;12.358;2023-03-04T18:53:06;100450.50;;;6.90;88.30
15382;BME280;7789;51.364;12.358;2023-03-04T18:58:09;100456.72;;;6.88;88.88
15382;BME280;7789;51.364;12.358;2023-03-04T19:03:13;100463.78;;;6.86;88.35
15382;BME280;7789;51.364;12.358;2023-03-04T19:08:18;100466.59;;;6.83;88.95
15382;BME280;7789;51.364;12.358;2023-03-04T19:13:21;100476.06;;;6.84;88.64
15382;BME280;7789;51.364;12.358;2023-03-04T19:18:24;100481.44;;;6.81;88.16
15382;BME280;7789;51.364;12.358;2023-03-04T19:23:29;100484.47;;;6.75;89.36
15382;BME280;7789;51.364;12.358;2023-03-04T19:28:32;100492.34;;;6.73;88.72
15382;BME280;7789;51.364;12.358;2023-03-04T19:33:37;100488.06;;;6.72;88.97
15382;BME280;7789;51.364;12.358;2023-03-04T19:38:42;100493.34;;;6.71;89.86
15382;BME280;7789;51.364;12.358;2023-03-04T19:43:45;100489.81;;;6.72;89.30
15382;BME280;7789;51.364;12.358;2023-03-04T19:48:49;100483.16;;;6.68;90.50
15382;BME280;7789;51.364;12.358;2023-03-04T19:53:54;100479.97;;;6.64;90.88
15382;BME280;7789;51.364;12.358;2023-03-04T19:58:57;100482.91;;;6.58;90.84
15382;BME280;7789;51.364;12.358;2023-03-04T20:04:03;100486.56;;;6.56;90.54
15382;BME280;7789;51.364;12.358;2023-03-04T20:09:09;100487.59;;;6.53;91.38
15382;BME280;7789;51.364;12.358;2023-03-04T20:14:15;100487.66;;;6.52;91.12
15382;BME280;7789;51.364;12.358;2023-03-04T20:19:28;100493.72;;;6.52;91.09
15382;BME280;7789;51.364;12.358;2023-03-04T20:24:42;100489.44;;;6.51;89.13
15382;BME280;7789;51.364;12.358;2023-03-04T20:29:45;100490.66;;;6.46;88.26
15382;BME280;7789;51.364;12.358;2023-03-04T20:34:50;100496.88;;;6.43;88.35
15382;BME280;7789;51.364;12.358;2023-03-04T20:40:06;100490.22;;;6.39;87.40
15382;BME280;7789;51.364;12.358;2023-03-04T20:45:12;100491.78;;;6.42;87.28
15382;BME280;7789;51.364;12.358;2023-03-04T20:50:37;100492.00;;;6.39;87.56
15382;BME280;7789;51.364;12.358;2023-03-04T20:55:43;100490.28;;;6.38;87.49
15382;BME280;7789;51.364;12.358;2023-03-04T21:00:50;100499.94;;;6.36;86.30
15382;BME280;7789;51.364;12.358;2023-03-04T21:05:56;100490.50;;;6.35;86.45
15382;BME280;7789;51.364;12.358;2023-03-04T21:11:07;100494.88;;;6.34;86.05
15382;BME280;7789;51.364;12.358;2023-03-04T21:16:13;100485.69;;;6.29;85.54
15382;BME280;7789;51.364;12.358;2023-03-04T21:21:20;100484.03;;;6.28;85.24
15382;BME280;7789;51.364;12.358;2023-03-04T21:26:30;100491.16;;;6.24;84.76
15382;BME280;7789;51.364;12.358;2023-03-04T21:31:39;100492.09;;;6.23;84.69
15382;BME280;7789;51.364;12.358;2023-03-04T21:36:44;100497.28;;;6.23;85.28
15382;BME280;7789;51.364;12.358;2023-03-04T21:41:49;100500.00;;;6.22;85.59
15382;BME280;7789;51.364;12.358;2023-03-04T21:46:53;100488.78;;;6.21;84.92
15382;BME280;7789;51.364;12.358;2023-03-04T21:52:02;100481.25;;;6.17;84.81
15382;BME280;7789;51.364;12.358;2023-03-04T21:57:11;100477.84;;;6.16;84.76
15382;BME280;7789;51.364;12.358;2023-03-04T22:02:16;100481.44;;;6.14;84.12
15382;BME280;7789;51.364;12.358;2023-03-04T22:07:20;100472.09;;;6.11;84.01
15382;BME280;7789;51.364;12.358;2023-03-04T22:12:25;100469.41;;;6.13;83.24
15382;BME280;7789;51.364;12.358;2023-03-04T22:17:28;100479.88;;;6.11;83.14
15382;BME280;7789;51.364;12.358;2023-03-04T22:22:32;100469.88;;;6.05;82.70
15382;BME280;7789;51.364;12.358;2023-03-04T22:27:39;100469.06;;;6.05;82.60
15382;BME280;7789;51.364;12.358;2023-03-04T22:32:43;100471.00;;;6.01;81.05
15382;BME280;7789;51.364;12.358;2023-03-04T22:37:46;100463.31;;;6.00;81.17
15382;BME280;7789;51.364;12.358;2023-03-04T22:42:51;100465.16;;;5.98;80.70
15382;BME280;7789;51.364;12.358;2023-03-04T22:47:54;100457.50;;;5.96;80.54
15382;BME280;7789;51.364;12.358;2023-03-04T22:52:58;100454.13;;;5.94;79.92
15382;BME280;7789;51.364;12.358;2023-03-04T22:58:03;100449.06;;;5.93;79.64
15382;BME280;7789;51.364;12.358;2023-03-04T23:03:07;100445.81;;;5.89;78.55
15382;BME280;7789;51.364;12.358;2023-03-04T23:08:11;100444.16;;;5.88;78.49
15382;BME280;7789;51.364;12.358;2023-03-04T23:13:17;100438.22;;;5.86;77.63
15382;BME280;7789;51.364;12.358;2023-03-04T23:18:20;100439.34;;;5.82;77.15
15382;BME280;7789;51.364;12.358;2023-03-04T23:23:23;100447.94;;;5.83;77.14
15382;BME280;7789;51.364;12.358;2023-03-04T23:28:27;100442.94;;;5.80;77.12
15382;BME280;7789;51.364;12.358;2023-03-04T23:33:31;100449.91;;;5.79;76.50
15382;BME280;7789;51.364;12.358;2023-03-04T23:38:34;100439.59;;;5.78;76.68
15382;BME280;7789;51.364;12.358;2023-03-04T23:43:39;100445.78;;;5.75;75.68
15382;BME280;7789;51.364;12.358;2023-03-04T23:48:43;100444.97;;;5.75;76.02
15382;BME280;7789;51.364;12.358;2023-03-04T23:53:47;100442.72;;;5.69;75.29
15382;BME280;7789;51.364;12.358;2023-03-04T23:58:52;100433.19;;;5.69;75.01
